Pagrindinis puslapis
METAR-TAF:

METAR-TAF

Oro uostai :

Jakuiba, Bolivija

platuma: 21-57S, ilguma: 063-39W, Aukštis: 645 m

Dabartinis oras

Ataskaita buvo paskelbta 1 valandą ir 11 minutes, ne 15:00 UTC
Vėjas 5 kt iš Pietų/Pietvakarių
Temperatūra 9°C
Drėgmė 93%
Slėgis 1021 hPa
Matomumas 10 km arba daugiau
Mažai debesys ne aukštis 700 ft
Su prošvaistėmis ne aukštis 1500 ft
Apsiniaukę ne aukštis 7000 ft

METAR: SLYA 251500Z 20005KT 9999 FEW007 BKN015 OVC070 09/08 Q1021

Laikas: 12:11 (16:11 UTC)


TAF: trūkstamas

Orai ataskaitas ir orų prognozės (METAR, TAF).

turimą stotys yra geltonos ir raudonos taškus žemėlapyje.

Perkelti pele per norėdami pamatyti stoties vardą.

Tada spustelėkite, norėdami matyti oro stebėjimo ir prognozės.

Norėdami pakeisti žemėlapį: spustelėkite ant žalios mygtukų su juodo kryžiaus žemyn,; žalią mygtuką su brūkšneliu, jei norite nutolinti; arba žalių rodyklių gretimoms žemėlapius.


METAR-TAF: